sensor_id;sensor_type;location;lat;lon;timestamp;pressure;altitude;pressure_sealevel;temperature;humidity
10824;BME280;39116;59.332;18.034;2023-10-13T00:00:27;100006.72;;;6.99;100.00
10824;BME280;39116;59.332;18.034;2023-10-13T00:02:50;99999.00;;;7.04;100.00
10824;BME280;39116;59.332;18.034;2023-10-13T00:05:13;99995.53;;;7.02;100.00
10824;BME280;39116;59.332;18.034;2023-10-13T00:07:36;99990.31;;;6.99;100.00
10824;BME280;39116;59.332;18.034;2023-10-13T00:09:58;99976.41;;;6.89;100.00
10824;BME280;39116;59.332;18.034;2023-10-13T00:12:21;99995.41;;;6.93;100.00
10824;BME280;39116;59.332;18.034;2023-10-13T00:14:44;99987.69;;;6.94;100.00
10824;BME280;39116;59.332;18.034;2023-10-13T00:17:07;99984.22;;;6.92;100.00
10824;BME280;39116;59.332;18.034;2023-10-13T00:19:31;99985.88;;;6.87;100.00
10824;BME280;39116;59.332;18.034;2023-10-13T00:21:59;99982.41;;;6.85;100.00
10824;BME280;39116;59.332;18.034;2023-10-13T00:24:29;99975.50;;;6.84;100.00
10824;BME280;39116;59.332;18.034;2023-10-13T00:26:59;99977.22;;;6.85;100.00
10824;BME280;39116;59.332;18.034;2023-10-13T00:29:26;99974.63;;;6.80;100.00
10824;BME280;39116;59.332;18.034;2023-10-13T00:31:57;99984.97;;;6.83;100.00
10824;BME280;39116;59.332;18.034;2023-10-13T00:34:20;99984.97;;;6.80;100.00
10824;BME280;39116;59.332;18.034;2023-10-13T00:36:46;99976.28;;;6.78;100.00
10824;BME280;39116;59.332;18.034;2023-10-13T00:39:29;99984.09;;;6.81;100.00
10824;BME280;39116;59.332;18.034;2023-10-13T00:41:56;99991.81;;;6.78;100.00
10824;BME280;39116;59.332;18.034;2023-10-13T00:44:20;100001.25;;;6.75;100.00
10824;BME280;39116;59.332;18.034;2023-10-13T00:46:50;99987.47;;;6.76;100.00
10824;BME280;39116;59.332;18.034;2023-10-13T00:49:15;100000.41;;;6.76;100.00
10824;BME280;39116;59.332;18.034;2023-10-13T00:51:38;100003.75;;;6.67;100.00
10824;BME280;39116;59.332;18.034;2023-10-13T00:54:03;100011.53;;;6.68;100.00
10824;BME280;39116;59.332;18.034;2023-10-13T00:56:31;100014.09;;;6.67;100.00
10824;BME280;39116;59.332;18.034;2023-10-13T00:58:53;100000.22;;;6.59;100.00
10824;BME280;39116;59.332;18.034;2023-10-13T01:01:18;100014.03;;;6.61;100.00
10824;BME280;39116;59.332;18.034;2023-10-13T01:03:40;100024.41;;;6.64;100.00
10824;BME280;39116;59.332;18.034;2023-10-13T01:06:02;100025.25;;;6.61;100.00
10824;BME280;39116;59.332;18.034;2023-10-13T01:08:33;100025.22;;;6.60;100.00
10824;BME280;39116;59.332;18.034;2023-10-13T01:10:58;100026.03;;;6.56;100.00
10824;BME280;39116;59.332;18.034;2023-10-13T01:13:19;100026.00;;;6.53;100.00
10824;BME280;39116;59.332;18.034;2023-10-13T01:15:42;100038.00;;;6.47;100.00
10824;BME280;39116;59.332;18.034;2023-10-13T01:18:06;100020.75;;;6.46;100.00
10824;BME280;39116;59.332;18.034;2023-10-13T01:20:33;100025.94;;;6.46;100.00
10824;BME280;39116;59.332;18.034;2023-10-13T01:23:09;100028.53;;;6.48;100.00
10824;BME280;39116;59.332;18.034;2023-10-13T01:25:38;100027.56;;;6.41;100.00
10824;BME280;39116;59.332;18.034;2023-10-13T01:28:01;100028.41;;;6.40;100.00
10824;BME280;39116;59.332;18.034;2023-10-13T01:30:23;100030.16;;;6.41;100.00
10824;BME280;39116;59.332;18.034;2023-10-13T01:32:46;100048.22;;;6.38;100.00
10824;BME280;39116;59.332;18.034;2023-10-13T01:35:08;100033.44;;;6.29;100.00
10824;BME280;39116;59.332;18.034;2023-10-13T01:37:29;100049.97;;;6.39;100.00
10824;BME280;39116;59.332;18.034;2023-10-13T01:39:52;100040.44;;;6.37;100.00
10824;BME280;39116;59.332;18.034;2023-10-13T01:42:13;100051.81;;;6.49;100.00
10824;BME280;39116;59.332;18.034;2023-10-13T01:44:40;100038.72;;;6.39;100.00
10824;BME280;39116;59.332;18.034;2023-10-13T01:47:01;100031.16;;;6.53;100.00
10824;BME280;39116;59.332;18.034;2023-10-13T01:49:26;100041.47;;;6.49;100.00
10824;BME280;39116;59.332;18.034;2023-10-13T01:51:47;100034.22;;;6.24;100.00
10824;BME280;39116;59.332;18.034;2023-10-13T01:54:09;100034.31;;;6.30;100.00
10824;BME280;39116;59.332;18.034;2023-10-13T01:56:34;100039.56;;;6.36;100.00
10824;BME280;39116;59.332;18.034;2023-10-13T01:59:02;100039.50;;;6.30;100.00
10824;BME280;39116;59.332;18.034;2023-10-13T02:01:33;100038.56;;;6.28;100.00
10824;BME280;39116;59.332;18.034;2023-10-13T02:03:55;100050.59;;;6.24;100.00
10824;BME280;39116;59.332;18.034;2023-10-13T02:06:22;100044.66;;;6.30;100.00
10824;BME280;39116;59.332;18.034;2023-10-13T02:08:44;100046.38;;;6.31;100.00
10824;BME280;39116;59.332;18.034;2023-10-13T02:11:08;100042.91;;;6.29;100.00
10824;BME280;39116;59.332;18.034;2023-10-13T02:13:31;100052.47;;;6.35;100.00
10824;BME280;39116;59.332;18.034;2023-10-13T02:15:56;100048.91;;;6.26;100.00
10824;BME280;39116;59.332;18.034;2023-10-13T02:18:23;100054.91;;;6.24;100.00
10824;BME280;39116;59.332;18.034;2023-10-13T02:20:47;100054.91;;;6.24;100.00
10824;BME280;39116;59.332;18.034;2023-10-13T02:23:14;100062.63;;;6.22;100.00
10824;BME280;39116;59.332;18.034;2023-10-13T02:25:36;100051.44;;;6.22;100.00
10824;BME280;39116;59.332;18.034;2023-10-13T02:28:03;100065.22;;;6.24;100.00
10824;BME280;39116;59.332;18.034;2023-10-13T02:30:30;100064.44;;;6.29;100.00
10824;BME280;39116;59.332;18.034;2023-10-13T02:32:53;100067.94;;;6.30;100.00
10824;BME280;39116;59.332;18.034;2023-10-13T02:35:15;100062.78;;;6.33;100.00
10824;BME280;39116;59.332;18.034;2023-10-13T02:37:38;100061.81;;;6.25;100.00
10824;BME280;39116;59.332;18.034;2023-10-13T02:39:59;100060.19;;;6.30;100.00
10824;BME280;39116;59.332;18.034;2023-10-13T02:42:21;100047.28;;;6.33;100.00
10824;BME280;39116;59.332;18.034;2023-10-13T02:44:43;100050.69;;;6.30;100.00
10824;BME280;39116;59.332;18.034;2023-10-13T02:47:08;100049.84;;;6.30;100.00
10824;BME280;39116;59.332;18.034;2023-10-13T02:49:34;100048.81;;;6.20;100.00
10824;BME280;39116;59.332;18.034;2023-10-13T02:51:58;100051.41;;;6.20;100.00
10824;BME280;39116;59.332;18.034;2023-10-13T02:54:25;100065.22;;;6.24;100.00
10824;BME280;39116;59.332;18.034;2023-10-13T02:56:51;100055.72;;;6.21;100.00
10824;BME280;39116;59.332;18.034;2023-10-13T02:59:18;100060.00;;;6.21;100.00
10824;BME280;39116;59.332;18.034;2023-10-13T03:01:54;100006.94;;;5.86;100.00
10824;BME280;39116;59.332;18.034;2023-10-13T03:04:18;100059.94;;;6.15;100.00
10824;BME280;39116;59.332;18.034;2023-10-13T03:06:46;100051.25;;;6.11;100.00
10824;BME280;39116;59.332;18.034;2023-10-13T03:09:09;100056.41;;;6.09;100.00
10824;BME280;39116;59.332;18.034;2023-10-13T03:11:38;100044.25;;;6.02;100.00
10824;BME280;39116;59.332;18.034;2023-10-13T03:14:03;100037.38;;;6.04;100.00
10824;BME280;39116;59.332;18.034;2023-10-13T03:16:26;100044.28;;;6.05;100.00
10824;BME280;39116;59.332;18.034;2023-10-13T03:18:49;100051.19;;;6.06;100.00
10824;BME280;39116;59.332;18.034;2023-10-13T03:21:17;100051.22;;;6.08;100.00
10824;BME280;39116;59.332;18.034;2023-10-13T03:23:49;100054.53;;;5.99;100.00
10824;BME280;39116;59.332;18.034;2023-10-13T03:26:14;100046.75;;;5.99;100.00
10824;BME280;39116;59.332;18.034;2023-10-13T03:28:37;100063.19;;;6.01;100.00
10824;BME280;39116;59.332;18.034;2023-10-13T03:30:59;100067.41;;;5.96;100.00
10824;BME280;39116;59.332;18.034;2023-10-13T03:33:21;100068.16;;;5.92;100.00
10824;BME280;39116;59.332;18.034;2023-10-13T03:35:47;100057.88;;;5.95;100.00
10824;BME280;39116;59.332;18.034;2023-10-13T03:38:15;100035.38;;;5.88;100.00
10824;BME280;39116;59.332;18.034;2023-10-13T03:40:38;100027.56;;;5.85;100.00
10824;BME280;39116;59.332;18.034;2023-10-13T03:43:00;100046.69;;;5.95;100.00
10824;BME280;39116;59.332;18.034;2023-10-13T03:45:24;100050.19;;;5.97;100.00
10824;BME280;39116;59.332;18.034;2023-10-13T03:47:46;100051.94;;;5.99;100.00
10824;BME280;39116;59.332;18.034;2023-10-13T03:50:12;100043.31;;;5.99;100.00
10824;BME280;39116;59.332;18.034;2023-10-13T03:52:37;100051.09;;;6.00;100.00
10824;BME280;39116;59.332;18.034;2023-10-13T03:55:00;100050.94;;;5.91;100.00
10824;BME280;39116;59.332;18.034;2023-10-13T03:57:26;100054.38;;;5.91;100.00
10824;BME280;39116;59.332;18.034;2023-10-13T03:59:48;100062.97;;;5.89;100.00
10824;BME280;39116;59.332;18.034;2023-10-13T04:02:10;100054.31;;;5.87;100.00
10824;BME280;39116;59.332;18.034;2023-10-13T04:04:38;100063.00;;;5.90;100.00
10824;BME280;39116;59.332;18.034;2023-10-13T04:07:09;100062.84;;;5.83;100.00
10824;BME280;39116;59.332;18.034;2023-10-13T04:09:48;100060.97;;;5.72;100.00
10824;BME280;39116;59.332;18.034;2023-10-13T04:12:37;100066.22;;;5.79;100.00
10824;BME280;39116;59.332;18.034;2023-10-13T04:15:17;100064.44;;;5.74;100.00
10824;BME280;39116;59.332;18.034;2023-10-13T04:17:55;100060.84;;;5.66;100.00
10824;BME280;39116;59.332;18.034;2023-10-13T04:20:18;100070.38;;;5.70;100.00
10824;BME280;39116;59.332;18.034;2023-10-13T04:22:53;100064.22;;;5.62;100.00
10824;BME280;39116;59.332;18.034;2023-10-13T04:25:36;100066.88;;;5.67;100.00
10824;BME280;39116;59.332;18.034;2023-10-13T04:28:15;100059.06;;;5.62;100.00
10824;BME280;39116;59.332;18.034;2023-10-13T04:30:54;100029.44;;;5.42;100.00
10824;BME280;39116;59.332;18.034;2023-10-13T04:33:20;100072.03;;;5.65;100.00
10824;BME280;39116;59.332;18.034;2023-10-13T04:36:00;100066.81;;;5.62;100.00
10824;BME280;39116;59.332;18.034;2023-10-13T04:38:34;100075.44;;;5.64;100.00
10824;BME280;39116;59.332;18.034;2023-10-13T04:41:13;100067.63;;;5.58;100.00
10824;BME280;39116;59.332;18.034;2023-10-13T04:43:44;100068.53;;;5.62;100.00
10824;BME280;39116;59.332;18.034;2023-10-13T04:46:16;100091.75;;;5.60;100.00
10824;BME280;39116;59.332;18.034;2023-10-13T04:48:55;100068.53;;;5.62;100.00
10824;BME280;39116;59.332;18.034;2023-10-13T04:51:21;100059.78;;;5.53;100.00
10824;BME280;39116;59.332;18.034;2023-10-13T04:54:10;100061.69;;;5.64;100.00
10824;BME280;39116;59.332;18.034;2023-10-13T04:56:32;100071.13;;;5.62;100.00
10824;BME280;39116;59.332;18.034;2023-10-13T04:59:42;100068.53;;;5.62;100.00
10824;BME280;39116;59.332;18.034;2023-10-13T05:02:21;100069.41;;;5.62;100.00
10824;BME280;39116;59.332;18.034;2023-10-13T05:05:00;100060.75;;;5.60;100.00
10824;BME280;39116;59.332;18.034;2023-10-13T05:07:40;100055.59;;;5.60;100.00
10824;BME280;39116;59.332;18.034;2023-10-13T05:10:19;100052.16;;;5.61;100.00
10824;BME280;39116;59.332;18.034;2023-10-13T05:12:58;100057.41;;;5.66;100.00
10824;BME280;39116;59.332;18.034;2023-10-13T05:15:44;100051.34;;;5.64;100.00
10824;BME280;39116;59.332;18.034;2023-10-13T05:18:23;100001.69;;;5.28;100.00
10824;BME280;39116;59.332;18.034;2023-10-13T05:21:02;100046.22;;;5.65;100.00
10824;BME280;39116;59.332;18.034;2023-10-13T05:23:42;100030.53;;;5.54;100.00
10824;BME280;39116;59.332;18.034;2023-10-13T05:26:22;100048.00;;;5.69;100.00
10824;BME280;39116;59.332;18.034;2023-10-13T05:29:02;100034.19;;;5.67;100.00
10824;BME280;39116;59.332;18.034;2023-10-13T05:31:43;100025.56;;;5.65;100.00
10824;BME280;39116;59.332;18.034;2023-10-13T05:34:22;100020.44;;;5.70;100.00
10824;BME280;39116;59.332;18.034;2023-10-13T05:37:13;100026.47;;;5.70;100.00
10824;BME280;39116;59.332;18.034;2023-10-13T05:39:53;100039.50;;;5.77;100.00
10824;BME280;39116;59.332;18.034;2023-10-13T05:42:32;100042.88;;;5.74;100.00
10824;BME280;39116;59.332;18.034;2023-10-13T05:45:11;100035.94;;;5.70;100.00
10824;BME280;39116;59.332;18.034;2023-10-13T05:47:58;100050.66;;;5.76;100.00
10824;BME280;39116;59.332;18.034;2023-10-13T05:50:31;100056.72;;;5.78;100.00
10824;BME280;39116;59.332;18.034;2023-10-13T05:53:35;100055.84;;;5.76;100.00
10824;BME280;39116;59.332;18.034;2023-10-13T05:56:14;100058.50;;;5.80;100.00
10824;BME280;39116;59.332;18.034;2023-10-13T05:58:53;100059.28;;;5.74;100.00
10824;BME280;39116;59.332;18.034;2023-10-13T06:01:33;100061.84;;;5.73;100.00
10824;BME280;39116;59.332;18.034;2023-10-13T06:04:13;100060.16;;;5.77;100.00
10824;BME280;39116;59.332;18.034;2023-10-13T06:06:52;100062.69;;;5.73;100.00
10824;BME280;39116;59.332;18.034;2023-10-13T06:09:32;100067.84;;;5.73;100.00
10824;BME280;39116;59.332;18.034;2023-10-13T06:12:11;100062.06;;;5.87;100.00
10824;BME280;39116;59.332;18.034;2023-10-13T06:14:50;100055.19;;;5.87;100.00
10824;BME280;39116;59.332;18.034;2023-10-13T06:17:29;100072.44;;;5.90;100.00
10824;BME280;39116;59.332;18.034;2023-10-13T06:20:10;100073.16;;;5.83;100.00
10824;BME280;39116;59.332;18.034;2023-10-13T06:22:50;100080.19;;;5.90;100.00
10824;BME280;39116;59.332;18.034;2023-10-13T06:25:29;100086.28;;;5.95;100.00
10824;BME280;39116;59.332;18.034;2023-10-13T06:28:11;100082.78;;;5.91;100.00
10824;BME280;39116;59.332;18.034;2023-10-13T06:30:54;100082.84;;;5.95;100.00
10824;BME280;39116;59.332;18.034;2023-10-13T06:33:17;100086.41;;;6.00;100.00
10824;BME280;39116;59.332;18.034;2023-10-13T06:35:49;100090.69;;;5.99;100.00
10824;BME280;39116;59.332;18.034;2023-10-13T06:38:12;100076.75;;;5.91;100.00
10824;BME280;39116;59.332;18.034;2023-10-13T06:40:45;100075.25;;;6.02;100.00
10824;BME280;39116;59.332;18.034;2023-10-13T06:43:09;100085.69;;;6.08;100.00
10824;BME280;39116;59.332;18.034;2023-10-13T06:45:37;100082.19;;;6.06;100.00
10824;BME280;39116;59.332;18.034;2023-10-13T06:47:59;100084.00;;;6.10;100.00
10824;BME280;39116;59.332;18.034;2023-10-13T06:50:21;100085.63;;;6.05;100.00
10824;BME280;39116;59.332;18.034;2023-10-13T06:52:46;100089.22;;;6.15;100.00
10824;BME280;39116;59.332;18.034;2023-10-13T06:55:08;100089.25;;;6.17;100.00
10824;BME280;39116;59.332;18.034;2023-10-13T06:57:37;100096.06;;;6.11;100.00
10824;BME280;39116;59.332;18.034;2023-10-13T07:00:05;100095.88;;;6.01;100.00
10824;BME280;39116;59.332;18.034;2023-10-13T07:02:29;100071.59;;;5.91;100.00
10824;BME280;39116;59.332;18.034;2023-10-13T07:04:54;100093.44;;;6.08;100.00
10824;BME280;39116;59.332;18.034;2023-10-13T07:07:27;100095.22;;;6.13;100.00
10824;BME280;39116;59.332;18.034;2023-10-13T07:09:52;100103.94;;;6.18;100.00
10824;BME280;39116;59.332;18.034;2023-10-13T07:12:18;100104.69;;;6.14;100.00
10824;BME280;39116;59.332;18.034;2023-10-13T07:14:47;100104.81;;;6.20;100.00
10824;BME280;39116;59.332;18.034;2023-10-13T07:17:12;100100.59;;;6.28;100.00
10824;BME280;39116;59.332;18.034;2023-10-13T07:19:43;100103.38;;;6.37;100.00
10824;BME280;39116;59.332;18.034;2023-10-13T07:22:14;100092.25;;;6.44;100.00
10824;BME280;39116;59.332;18.034;2023-10-13T07:24:40;100091.53;;;6.55;100.00
10824;BME280;39116;59.332;18.034;2023-10-13T07:27:04;100082.09;;;6.58;100.00
10824;BME280;39116;59.332;18.034;2023-10-13T07:29:26;100095.28;;;6.78;100.00
10824;BME280;39116;59.332;18.034;2023-10-13T07:31:48;100073.63;;;6.68;100.00
10824;BME280;39116;59.332;18.034;2023-10-13T07:34:11;100095.44;;;6.87;100.00
10824;BME280;39116;59.332;18.034;2023-10-13T07:36:37;100085.97;;;6.90;100.00
10824;BME280;39116;59.332;18.034;2023-10-13T07:39:01;100088.56;;;6.90;100.00
10824;BME280;39116;59.332;18.034;2023-10-13T07:41:40;99946.91;;;6.03;100.00
10824;BME280;39116;59.332;18.034;2023-10-13T07:44:04;100093.78;;;6.96;100.00
10824;BME280;39116;59.332;18.034;2023-10-13T07:46:26;100093.09;;;7.07;100.00
10824;BME280;39116;59.332;18.034;2023-10-13T07:48:51;100100.66;;;6.94;100.00
10824;BME280;39116;59.332;18.034;2023-10-13T07:51:14;100082.63;;;6.98;100.00
10824;BME280;39116;59.332;18.034;2023-10-13T07:53:39;100078.47;;;7.11;100.00
10824;BME280;39116;59.332;18.034;2023-10-13T07:56:01;100084.50;;;7.13;100.00
10824;BME280;39116;59.332;18.034;2023-10-13T07:58:25;100081.97;;;7.19;100.00
10824;BME280;39116;59.332;18.034;2023-10-13T08:00:49;100095.59;;;7.03;100.00
10824;BME280;39116;59.332;18.034;2023-10-13T08:03:15;100075.69;;;6.97;100.00
10824;BME280;39116;59.332;18.034;2023-10-13T08:05:53;100096.72;;;7.26;100.00
10824;BME280;39116;59.332;18.034;2023-10-13T08:08:18;100108.06;;;7.36;100.00
10824;BME280;39116;59.332;18.034;2023-10-13T08:10:42;100104.50;;;7.23;100.00
10824;BME280;39116;59.332;18.034;2023-10-13T08:13:05;100085.50;;;7.24;100.00
10824;BME280;39116;59.332;18.034;2023-10-13T08:15:32;100052.53;;;7.08;100.00
10824;BME280;39116;59.332;18.034;2023-10-13T08:17:56;100078.00;;;7.51;100.00
10824;BME280;39116;59.332;18.034;2023-10-13T08:20:19;100067.59;;;7.43;100.00
10824;BME280;39116;59.332;18.034;2023-10-13T08:22:42;100073.72;;;7.53;100.00
10824;BME280;39116;59.332;18.034;2023-10-13T08:25:08;100071.16;;;7.56;100.00
10824;BME280;39116;59.332;18.034;2023-10-13T08:27:45;100063.38;;;7.54;100.00
10824;BME280;39116;59.332;18.034;2023-10-13T08:30:10;100070.34;;;7.61;100.00
10824;BME280;39116;59.332;18.034;2023-10-13T08:32:49;100062.59;;;7.63;100.00
10824;BME280;39116;59.332;18.034;2023-10-13T08:35:20;100068.59;;;7.60;100.00
10824;BME280;39116;59.332;18.034;2023-10-13T08:37:54;100053.06;;;7.57;100.00
10824;BME280;39116;59.332;18.034;2023-10-13T08:40:26;100065.31;;;7.78;100.00
10824;BME280;39116;59.332;18.034;2023-10-13T08:43:06;100063.56;;;7.76;100.00
10824;BME280;39116;59.332;18.034;2023-10-13T08:45:36;100063.56;;;7.76;100.00
10824;BME280;39116;59.332;18.034;2023-10-13T08:48:13;100058.31;;;7.67;100.00
10824;BME280;39116;59.332;18.034;2023-10-13T08:50:38;100004.59;;;7.47;100.00
10824;BME280;39116;59.332;18.034;2023-10-13T08:53:14;100059.41;;;7.98;100.00
10824;BME280;39116;59.332;18.034;2023-10-13T08:55:47;100054.28;;;8.06;100.00
10824;BME280;39116;59.332;18.034;2023-10-13T08:58:25;100057.75;;;8.09;100.00
10824;BME280;39116;59.332;18.034;2023-10-13T09:01:05;100056.84;;;7.99;100.00
10824;BME280;39116;59.332;18.034;2023-10-13T09:03:33;100070.88;;;8.28;100.00
10824;BME280;39116;59.332;18.034;2023-10-13T09:06:01;100075.97;;;8.20;100.00
10824;BME280;39116;59.332;18.034;2023-10-13T09:08:27;100070.00;;;8.29;100.00
10824;BME280;39116;59.332;18.034;2023-10-13T09:10:58;100070.00;;;8.26;100.00
10824;BME280;39116;59.332;18.034;2023-10-13T09:13:34;100053.72;;;8.47;100.00
10824;BME280;39116;59.332;18.034;2023-10-13T09:16:09;100033.66;;;8.19;100.00
10824;BME280;39116;59.332;18.034;2023-10-13T09:18:36;100060.69;;;8.54;100.00
10824;BME280;39116;59.332;18.034;2023-10-13T09:21:08;100071.94;;;8.57;100.00
10824;BME280;39116;59.332;18.034;2023-10-13T09:23:50;100057.31;;;8.69;100.00
10824;BME280;39116;59.332;18.034;2023-10-13T09:26:22;100057.31;;;8.75;100.00
10824;BME280;39116;59.332;18.034;2023-10-13T09:28:45;100036.59;;;8.86;100.00
10824;BME280;39116;59.332;18.034;2023-10-13T09:31:11;100052.19;;;8.86;100.00
10824;BME280;39116;59.332;18.034;2023-10-13T09:33:33;100047.88;;;8.91;100.00
10824;BME280;39116;59.332;18.034;2023-10-13T09:35:56;100054.88;;;9.09;100.00
10824;BME280;39116;59.332;18.034;2023-10-13T09:38:21;100034.88;;;8.86;100.00
10824;BME280;39116;59.332;18.034;2023-10-13T09:40:44;100042.69;;;8.85;100.00
10824;BME280;39116;59.332;18.034;2023-10-13T09:43:10;100044.41;;;8.87;100.00
10824;BME280;39116;59.332;18.034;2023-10-13T09:45:35;100034.91;;;8.91;100.00
10824;BME280;39116;59.332;18.034;2023-10-13T09:48:02;100025.44;;;8.99;100.00
10824;BME280;39116;59.332;18.034;2023-10-13T09:50:27;100025.41;;;8.94;100.00
10824;BME280;39116;59.332;18.034;2023-10-13T09:52:54;100034.00;;;8.86;100.00
10824;BME280;39116;59.332;18.034;2023-10-13T09:55:26;99996.81;;;8.91;100.00
10824;BME280;39116;59.332;18.034;2023-10-13T09:58:02;100009.81;;;9.01;100.00
10824;BME280;39116;59.332;18.034;2023-10-13T10:00:32;99988.22;;;9.08;100.00
10824;BME280;39116;59.332;18.034;2023-10-13T10:03:08;99995.09;;;8.95;100.00
10824;BME280;39116;59.332;18.034;2023-10-13T10:05:56;100002.09;;;9.33;100.00
10824;BME280;39116;59.332;18.034;2023-10-13T10:08:24;99999.53;;;9.59;100.00
10824;BME280;39116;59.332;18.034;2023-10-13T10:11:00;100000.38;;;9.81;100.00
10824;BME280;39116;59.332;18.034;2023-10-13T10:13:34;99948.44;;;9.41;100.00
10824;BME280;39116;59.332;18.034;2023-10-13T10:16:02;99986.53;;;9.94;100.00
10824;BME280;39116;59.332;18.034;2023-10-13T10:18:27;99991.72;;;9.70;100.00
10824;BME280;39116;59.332;18.034;2023-10-13T10:20:49;99983.06;;;9.74;100.00
10824;BME280;39116;59.332;18.034;2023-10-13T10:23:24;99920.72;;;9.43;100.00
10824;BME280;39116;59.332;18.034;2023-10-13T10:25:48;99958.81;;;9.72;100.00
10824;BME280;39116;59.332;18.034;2023-10-13T10:28:13;99977.88;;;9.69;100.00
10824;BME280;39116;59.332;18.034;2023-10-13T10:30:37;99980.44;;;10.00;100.00
10824;BME280;39116;59.332;18.034;2023-10-13T10:33:01;99922.47;;;9.41;100.00
10824;BME280;39116;59.332;18.034;2023-10-13T10:35:28;99965.72;;;9.76;100.00
10824;BME280;39116;59.332;18.034;2023-10-13T10:37:54;99961.38;;;9.93;100.00
10824;BME280;39116;59.332;18.034;2023-10-13T10:40:32;99960.50;;;10.07;100.00
10824;BME280;39116;59.332;18.034;2023-10-13T10:43:08;99958.78;;;9.93;100.00
10824;BME280;39116;59.332;18.034;2023-10-13T10:45:31;99951.81;;;10.11;100.00
10824;BME280;39116;59.332;18.034;2023-10-13T10:47:54;99943.09;;;10.24;100.00
10824;BME280;39116;59.332;18.034;2023-10-13T10:50:25;99930.97;;;10.17;100.00
10824;BME280;39116;59.332;18.034;2023-10-13T10:52:55;99934.47;;;10.15;100.00
10824;BME280;39116;59.332;18.034;2023-10-13T10:55:19;99937.13;;;9.94;100.00
10824;BME280;39116;59.332;18.034;2023-10-13T10:57:43;99923.22;;;10.11;100.00
10824;BME280;39116;59.332;18.034;2023-10-13T11:00:06;99932.69;;;10.23;100.00
10824;BME280;39116;59.332;18.034;2023-10-13T11:02:36;99925.78;;;10.17;100.00
10824;BME280;39116;59.332;18.034;2023-10-13T11:04:58;99916.34;;;9.84;100.00
10824;BME280;39116;59.332;18.034;2023-10-13T11:07:21;99918.09;;;9.82;100.00
10824;BME280;39116;59.332;18.034;2023-10-13T11:09:44;99916.28;;;10.04;100.00
10824;BME280;39116;59.332;18.034;2023-10-13T11:12:12;99909.34;;;10.10;100.00
10824;BME280;39116;59.332;18.034;2023-10-13T11:14:36;99897.09;;;10.39;100.00
10824;BME280;39116;59.332;18.034;2023-10-13T11:16:59;99899.72;;;10.29;100.00
10824;BME280;39116;59.332;18.034;2023-10-13T11:19:35;99896.25;;;10.27;100.00
10824;BME280;39116;59.332;18.034;2023-10-13T11:21:57;99877.13;;;10.44;100.00
10824;BME280;39116;59.332;18.034;2023-10-13T11:24:22;99840.78;;;10.25;100.00
10824;BME280;39116;59.332;18.034;2023-10-13T11:26:44;99892.69;;;10.56;100.00
10824;BME280;39116;59.332;18.034;2023-10-13T11:29:10;99886.69;;;10.37;100.00
10824;BME280;39116;59.332;18.034;2023-10-13T11:31:32;99870.09;;;10.61;100.00
10824;BME280;39116;59.332;18.034;2023-10-13T11:33:54;99867.44;;;10.69;100.00
10824;BME280;39116;59.332;18.034;2023-10-13T11:36:18;99862.25;;;10.70;100.00
10824;BME280;39116;59.332;18.034;2023-10-13T11:38:43;99849.28;;;10.61;100.00
10824;BME280;39116;59.332;18.034;2023-10-13T11:41:10;99857.00;;;10.75;100.00
10824;BME280;39116;59.332;18.034;2023-10-13T11:43:38;99855.34;;;10.63;100.00
10824;BME280;39116;59.332;18.034;2023-10-13T11:46:13;99859.56;;;10.80;100.00
10824;BME280;39116;59.332;18.034;2023-10-13T11:48:36;99838.03;;;10.58;100.00
10824;BME280;39116;59.332;18.034;2023-10-13T11:50:57;99833.53;;;10.78;100.00
10824;BME280;39116;59.332;18.034;2023-10-13T11:53:21;99850.81;;;10.93;100.00
10824;BME280;39116;59.332;18.034;2023-10-13T11:55:43;99839.56;;;10.88;100.00
10824;BME280;39116;59.332;18.034;2023-10-13T11:58:04;99814.47;;;10.78;100.00
10824;BME280;39116;59.332;18.034;2023-10-13T12:00:26;99830.09;;;10.75;100.00
10824;BME280;39116;59.332;18.034;2023-10-13T12:03:08;99837.78;;;10.93;100.00
10824;BME280;39116;59.332;18.034;2023-10-13T12:05:48;99817.78;;;10.98;100.00
10824;BME280;39116;59.332;18.034;2023-10-13T12:08:39;99821.09;;;11.16;100.00
10824;BME280;39116;59.332;18.034;2023-10-13T12:11:09;99819.16;;;11.36;100.00
10824;BME280;39116;59.332;18.034;2023-10-13T12:13:45;99812.31;;;11.26;100.00
10824;BME280;39116;59.332;18.034;2023-10-13T12:16:07;99800.03;;;11.39;100.00
10824;BME280;39116;59.332;18.034;2023-10-13T12:18:30;99796.50;;;11.44;100.00
10824;BME280;39116;59.332;18.034;2023-10-13T12:20:53;99780.09;;;11.35;100.00
10824;BME280;39116;59.332;18.034;2023-10-13T12:23:17;99783.88;;;11.03;100.00
10824;BME280;39116;59.332;18.034;2023-10-13T12:25:43;99781.88;;;11.31;100.00
10824;BME280;39116;59.332;18.034;2023-10-13T12:28:23;99781.91;;;11.28;100.00
10824;BME280;39116;59.332;18.034;2023-10-13T12:30:47;99756.97;;;11.02;100.00
10824;BME280;39116;59.332;18.034;2023-10-13T12:33:13;99763.03;;;11.04;100.00
10824;BME280;39116;59.332;18.034;2023-10-13T12:35:39;99749.47;;;10.68;100.00
10824;BME280;39116;59.332;18.034;2023-10-13T12:38:06;99755.31;;;10.95;100.00
10824;BME280;39116;59.332;18.034;2023-10-13T12:40:37;99753.47;;;11.03;100.00
10824;BME280;39116;59.332;18.034;2023-10-13T12:43:17;99745.75;;;10.97;100.00
10824;BME280;39116;59.332;18.034;2023-10-13T12:45:56;99735.69;;;10.56;100.00
10824;BME280;39116;59.332;18.034;2023-10-13T12:48:37;99726.09;;;10.62;100.00